• Join FlightAware (Why Join?)
  • Login
  • US Flag 
12:16PM EDT


 

Airport Tracker/Info


-or-


 

Live Flight TrackerFlight Track Log ✈ DAL6044 ✈ 29-Apr-2013 ✈ KLGA - KCLE

Flight Track Log - Related Links

Times and Time Zones

All times are in EDT time to prevent confusion due to time zone crossing. See the DAL6044 flight status page for this flight to view local times or setup timezone preferences in your user account.

Time Position Orientation Groundspeed Altitude Reporting Facility
EDT Latitude Longitude Course Direction KTS MPH feet Rate Location/Type
04:56PM 40.7667 -73.8500 275° West 150 173 1,300  Level New York TRACON
04:57PM 40.7333 -73.8000 131° Southeast 203 234 3,900 2,460 Climbing New York TRACON
04:58PM 40.8000 -73.8000 360° North 256 295 6,500 2,520 Climbing New York TRACON
04:59PM 40.8179 -74.2297 277° West  Level FlightAware Approximate
04:59PM 40.8333 -73.8667 303° West 246 283 9,000  Level New York TRACON
05:00PM 40.8293 -74.3555 277° West  Level FlightAware Approximate
05:00PM 40.8667 -73.9667 294° West 261 300 11,600  Level New York TRACON
05:01PM 40.8392 -74.4815 275° West  Level FlightAware Approximate
05:01PM 40.8667 -74.0667 270° West 293 337 13,100  Level New York TRACON
05:02PM 40.8833 -74.1833 281° West 325 374 14,700 1,140 Climbing New York TRACON
05:03PM 40.8833 -74.3000 270° West 356 410 15,500 960 Climbing New York TRACON
05:04PM 40.8864 -74.4217 272° West 362 417 16,400 840 Climbing New York Center
05:05PM 40.8933 -74.5372 275° West 378 435 17,000 300 Climbing New York Center
05:06PM 40.8992 -74.6775 273° West 385 443 17,000 60 Level New York Center
05:07PM 40.9047 -74.8178 273° West 385 443 17,200 600 Climbing New York Center
05:08PM 40.9103 -74.9556 273° West 385 443 18,300 1,260 Climbing New York Center
05:09PM 40.9158 -75.0931 273° West 385 443 19,700 1,440 Climbing New York Center
05:10PM 40.9044 -75.2297 264° West 385 443 21,200 1,380 Climbing New York Center
05:11PM 40.8792 -75.3489 254° West 385 443 22,500 1,320 Climbing New York Center
05:12PM 40.8489 -75.4839 254° West 385 443 23,900 1,380 Climbing New York Center
05:13PM 40.8164 -75.6189 252° West 390 449 25,300 1,440 Climbing New York Center
05:14PM 40.7861 -75.7456 253° West 385 443 26,800 1,380 Climbing New York Center
05:15PM 40.7533 -75.8747 252° West 380 437 28,200 1,380 Climbing New York Center
05:16PM 40.7228 -76.0011 252° West 380 437 29,700 1,380 Climbing New York Center
05:17PM 40.6942 -76.1275 253° West 374 430 31,100 1,320 Climbing New York Center
05:18PM 40.6678 -76.2542 255° West 374 430 32,300 1,020 Climbing New York Center
05:19PM 40.6844 -76.3867 279° West 362 417 33,200 840 Climbing New York Center
05:20PM 40.7069 -76.5228 282° West 371 427 34,000 360 Climbing New York Center
05:21PM 40.7272 -76.6614 281° West 376 433 34,000  Level New York Center
05:22PM 40.7489 -76.8086 281° West 390 449 34,000  Level New York Center
05:23PM 40.7706 -76.9583 281° West 410 472 34,000  Level New York Center
05:24PM 40.7917 -77.1111 280° West 421 484 34,000  Level New York Center
05:25PM 40.8128 -77.2558 281° West 416 479 34,000  Level New York Center
05:26PM 40.8392 -77.4203 282° West 416 479 34,000  Level New York Center
05:28PM 40.8828 -77.7542 280° West 427 491 34,000  Level Cleveland Center
05:29PM 40.9031 -77.9072 280° West 427 491 34,000  Level Cleveland Center
05:30PM 40.9253 -78.0575 281° West 427 491 34,000  Level Cleveland Center
05:31PM 40.9492 -78.2050 282° West 427 491 34,000 -480 Level Cleveland Center
05:32PM 40.9772 -78.3525 284° West 427 491 33,100 -540 Descending Cleveland Center
05:33PM 41.0031 -78.4975 283° West 415 478 33,000 -60 Descending Cleveland Center
05:34PM 41.0244 -78.6483 281° West 415 478 33,000 -720 Level Cleveland Center
05:35PM 41.0497 -78.7961 283° West 415 478 31,600 -1,200 Descending Cleveland Center
05:36PM 41.0914 -78.9356 292° West 409 471 30,600 -1,020 Descending Cleveland Center
05:37PM 41.1478 -79.0858 297° West 409 471 29,600 -1,020 Descending Cleveland Center
05:38PM 41.1953 -79.2283 294° West 415 478 28,600 -1,080 Descending Cleveland Center
05:39PM 41.2072 -79.3714 276° West 420 483 27,500 -1,260 Descending Cleveland Center
05:40PM 41.2256 -79.5314 279° West 433 498 26,100 -780 Descending Cleveland Center
05:41PM 41.2417 -79.7078 277° West 433 498 26,000 -720 Descending Cleveland Center
05:42PM 41.2572 -79.8622 278° West 438 504 24,700 -1,020 Descending Cleveland Center
05:43PM 41.2664 -79.9808 276° West 427 491 24,000 -360 Descending Cleveland Center
05:44PM 41.2961 -80.1408 284° West 415 478 24,000 -360 Level Cleveland Center
05:45PM 41.3281 -80.2872 286° West 410 472 23,300 -1,680 Descending Cleveland Center
05:46PM 41.3617 -80.4531 285° West 416 479 20,700 -2,520 Descending Cleveland Center
05:47PM 41.3950 -80.5914 288° West 409 471 18,300 -2,280 Descending Cleveland Center
05:48PM 41.4242 -80.7244 286° West 385 443 16,200 -2,100 Descending Cleveland Center
05:49PM 41.4489 -80.8492 285° West 357 411 14,200 -1,800 Descending Cleveland Center
05:50PM 41.4758 -80.9656 287° West 351 404 12,600 -1,500 Descending Cleveland Center
05:51PM 41.4961 -81.0683 285° West 330 380 11,200 -1,320 Descending Cleveland Center
05:52PM 41.5250 -81.1739 290° West 316 364 10,000 -900 Descending Cleveland Center
05:53PM 41.5536 -81.2714 291° West 293 337 9,500 -1,080 Descending Cleveland Center
05:54PM 41.5842 -81.3658 293° West 283 326 7,900 -1,320 Descending Cleveland Center
05:55PM 41.5897 -81.4658 274° West 257 296 7,000 -960 Descending Cleveland Center
05:56PM 41.5764 -81.5575 259° West 253 291 6,000 -1,200 Descending Cleveland Center
05:57PM 41.5614 -81.6183 252° West 232 267 4,900 -1,440 Descending Cleveland Center
05:58PM 41.5128 -81.6922 229° Southwest 238 274 3,200 -1,140 Descending Cleveland Center
05:59PM 41.4744 -81.7525 230° Southwest 224 258 2,500 -720 Descending Cleveland Center